EmailTwitter


Observations de surface / Québec / CYUL (71627)

Régions: Québec | Canada | États-Unis | Europe | France | UK | Ailleurs
Station
Affichage
Infos & localisation pour CYUL (71627) | Aide pour décoder les METARs

Observations prises le 2017-08-17 à 03H00 UTC à MONTREAL INTL A, QB (CYUL)

Etat du ciel: quelques nuages.

Température: 18.0 Celsius

Point de rosée: 9.0 Celsius

Humidité relative: 56%

Vents: Ouest à 11 km/h ou 6 noeuds.

Pression au niveau moyen de la mer: 101.69 kilopascals.

Calage altimétrique: 101.66 kilopascals ou 30.02 pouces de mercure.

Visibilité horizontale: 15.00 milles terrestres ou 24.00 kilomètres.

Observation METAR:

CYUL 170300Z 26006KT 15SM FEW250 18/09 A3002 RMK CI1 CI TR SLP169 DENSITY ALT

400FT=